createdAt,value
2022-08-09T00:00:04.451Z,7.75
2022-08-09T00:02:47.370Z,7.55
2022-08-09T00:06:17.389Z,7.82
2022-08-09T00:08:32.424Z,7.35
2022-08-09T00:11:05.972Z,7.50
2022-08-09T00:13:52.697Z,6.03
2022-08-09T00:16:26.185Z,6.95
2022-08-09T00:19:09.494Z,7.13
2022-08-09T00:21:38.735Z,7.45
2022-08-09T00:24:27.288Z,5.20
2022-08-09T00:26:57.340Z,4.70
2022-08-09T00:30:16.195Z,4.07
2022-08-09T00:32:13.376Z,5.10
2022-08-09T00:34:52.849Z,4.18
2022-08-09T00:37:20.208Z,4.70
2022-08-09T00:40:14.129Z,4.63
2022-08-09T00:44:16.316Z,4.60
2022-08-09T00:45:50.455Z,5.10
2022-08-09T00:48:21.207Z,5.25
2022-08-09T00:50:52.319Z,5.25
2022-08-09T00:53:24.178Z,5.82
2022-08-09T00:56:05.206Z,5.70
2022-08-09T00:58:36.876Z,5.78
2022-08-09T01:01:19.395Z,5.25
2022-08-09T01:04:09.130Z,5.18
2022-08-09T01:06:54.844Z,5.25
2022-08-09T01:09:38.387Z,5.03
2022-08-09T01:12:35.043Z,4.90
2022-08-09T01:15:16.692Z,4.75
2022-08-09T01:18:03.848Z,4.68
2022-08-09T01:20:49.986Z,4.57
2022-08-09T01:24:02.623Z,4.20
2022-08-09T01:26:41.214Z,4.78
2022-08-09T01:29:12.692Z,4.65
2022-08-09T01:32:29.845Z,5.00
2022-08-09T01:34:34.946Z,4.80
2022-08-09T01:37:11.045Z,4.97
2022-08-09T01:39:43.366Z,5.00
2022-08-09T01:42:11.448Z,5.00
2022-08-09T01:44:41.523Z,5.72
2022-08-09T01:47:11.663Z,5.43
2022-08-09T01:49:40.854Z,5.65
2022-08-09T01:52:19.370Z,5.93
2022-08-09T01:54:52.656Z,6.70
2022-08-09T01:57:45.798Z,6.03
2022-08-09T02:03:06.451Z,7.25
2022-08-09T02:05:37.996Z,6.83
2022-08-09T02:08:35.979Z,6.90
2022-08-09T02:11:17.314Z,7.15
2022-08-09T02:14:08.118Z,7.40
2022-08-09T02:16:59.697Z,8.10
2022-08-09T02:19:38.473Z,8.20
2022-08-09T02:25:02.174Z,7.82
2022-08-09T02:27:58.107Z,8.35
2022-08-09T02:30:19.678Z,8.25
2022-08-09T02:32:48.508Z,8.50
2022-08-09T02:35:28.809Z,8.38
2022-08-09T02:38:27.981Z,9.20
2022-08-09T02:41:02.117Z,9.23
2022-08-09T02:43:53.735Z,9.90
2022-08-09T02:46:21.783Z,9.23
2022-08-09T02:48:51.576Z,10.10
2022-08-09T02:51:22.768Z,10.95
2022-08-09T02:54:01.091Z,10.25
2022-08-09T02:56:31.960Z,10.30
2022-08-09T02:59:03.664Z,10.60
2022-08-09T03:02:05.165Z,10.40
2022-08-09T03:04:21.815Z,9.30
2022-08-09T03:06:57.452Z,9.45
2022-08-09T03:09:33.491Z,8.80
2022-08-09T03:12:09.694Z,9.68
2022-08-09T03:14:40.864Z,9.95
2022-08-09T03:17:09.231Z,9.52
2022-08-09T03:19:57.775Z,10.02
2022-08-09T03:22:30.940Z,9.98
2022-08-09T03:25:21.471Z,11.98
2022-08-09T03:27:51.256Z,10.77
2022-08-09T03:30:30.159Z,10.35
2022-08-09T03:33:17.503Z,11.35
2022-08-09T03:36:15.888Z,11.20
2022-08-09T03:38:43.459Z,10.85
2022-08-09T03:41:18.184Z,11.27
2022-08-09T03:44:03.149Z,11.10
2022-08-09T03:46:36.919Z,10.63
2022-08-09T03:49:07.924Z,11.07
2022-08-09T03:51:56.869Z,11.63
2022-08-09T03:54:31.253Z,12.48
2022-08-09T03:57:17.972Z,11.73
2022-08-09T03:59:56.143Z,12.35
2022-08-09T04:02:31.132Z,12.60
2022-08-09T04:05:06.521Z,12.55
2022-08-09T04:07:52.440Z,11.98
2022-08-09T04:10:29.315Z,13.02
2022-08-09T04:13:00.733Z,12.88
2022-08-09T04:15:51.905Z,13.35
2022-08-09T04:18:16.495Z,12.77
2022-08-09T04:20:47.322Z,12.75
2022-08-09T04:23:17.060Z,12.98
2022-08-09T04:25:52.323Z,13.32
2022-08-09T04:28:31.410Z,12.70
2022-08-09T04:31:09.140Z,12.32
2022-08-09T04:33:52.056Z,12.38
2022-08-09T04:36:26.748Z,10.82
2022-08-09T04:38:55.442Z,12.73
2022-08-09T04:41:24.432Z,12.38
2022-08-09T04:44:09.734Z,12.88
2022-08-09T04:46:57.606Z,10.82
2022-08-09T04:49:52.295Z,11.00
2022-08-09T04:52:26.624Z,10.75
2022-08-09T04:55:01.654Z,10.93
2022-08-09T04:57:58.596Z,10.88
2022-08-09T05:00:19.718Z,11.73
2022-08-09T05:02:51.623Z,10.50
2022-08-09T05:07:59.769Z,10.57
2022-08-09T05:10:27.395Z,10.38
2022-08-09T05:12:54.936Z,9.77
2022-08-09T05:15:38.371Z,10.93
2022-08-09T05:18:39.271Z,10.52
2022-08-09T05:20:53.991Z,10.45
2022-08-09T05:23:53.546Z,10.85
2022-08-09T05:26:09.448Z,10.90
2022-08-09T05:28:53.820Z,11.93
2022-08-09T05:31:23.619Z,10.25
2022-08-09T05:34:08.338Z,10.55
2022-08-09T05:36:47.051Z,10.98
2022-08-09T05:39:28.146Z,10.65
2022-08-09T05:42:04.449Z,10.50
2022-08-09T05:44:34.960Z,10.82
2022-08-09T05:47:04.903Z,10.68
2022-08-09T05:50:24.461Z,9.77
2022-08-09T05:52:24.687Z,9.52
2022-08-09T05:54:52.218Z,10.02
2022-08-09T05:57:19.739Z,10.15
2022-08-09T05:59:52.500Z,9.82
2022-08-09T06:02:20.534Z,9.30
2022-08-09T06:04:49.299Z,8.07
2022-08-09T06:07:21.387Z,8.27
2022-08-09T06:10:01.765Z,8.00
2022-08-09T06:12:33.813Z,8.65
2022-08-09T06:15:09.494Z,8.00
2022-08-09T06:17:39.046Z,7.93
2022-08-09T06:20:08.217Z,9.13
2022-08-09T06:22:39.343Z,8.30
2022-08-09T06:25:12.337Z,8.25
2022-08-09T06:27:51.447Z,8.98
2022-08-09T06:30:19.491Z,8.35
2022-08-09T06:33:13.389Z,8.48
2022-08-09T06:35:35.663Z,7.90
2022-08-09T06:38:31.969Z,8.52
2022-08-09T06:41:18.415Z,8.63
2022-08-09T06:43:48.053Z,9.00
2022-08-09T06:46:40.348Z,9.23
2022-08-09T06:49:03.959Z,9.00
2022-08-09T06:51:33.789Z,9.77
2022-08-09T06:54:11.822Z,9.70
2022-08-09T06:56:45.529Z,8.90
2022-08-09T07:00:51.799Z,9.43
2022-08-09T07:02:04.464Z,9.02
2022-08-09T07:04:32.497Z,9.05
2022-08-09T07:07:00.688Z,8.98
2022-08-09T07:09:57.281Z,9.70
2022-08-09T07:12:17.861Z,10.38
2022-08-09T07:14:51.241Z,10.40
2022-08-09T07:17:22.218Z,10.80
2022-08-09T07:19:55.298Z,10.35
2022-08-09T07:22:34.304Z,11.40
2022-08-09T07:25:09.641Z,9.98
2022-08-09T07:27:42.753Z,9.75
2022-08-09T07:30:13.530Z,10.45
2022-08-09T07:32:41.723Z,10.25
2022-08-09T07:35:12.369Z,10.85
2022-08-09T07:40:17.138Z,9.35
2022-08-09T07:45:39.937Z,10.27
2022-08-09T07:48:25.582Z,8.93
2022-08-09T07:51:09.640Z,10.38
2022-08-09T07:54:05.798Z,10.10
2022-08-09T07:56:36.989Z,9.52
2022-08-09T07:59:12.357Z,10.27
2022-08-09T08:01:41.391Z,9.00
2022-08-09T08:04:10.686Z,7.93
2022-08-09T08:06:55.610Z,7.82
2022-08-09T08:09:38.509Z,8.95
2022-08-09T08:12:28.008Z,8.45
2022-08-09T08:14:59.535Z,8.77
2022-08-09T08:17:54.514Z,8.38
2022-08-09T08:20:32.733Z,9.13
2022-08-09T08:23:06.946Z,8.00
2022-08-09T08:25:54.153Z,7.93
2022-08-09T08:28:35.020Z,8.63
2022-08-09T08:31:14.919Z,8.00
2022-08-09T08:33:53.832Z,7.85
2022-08-09T08:36:29.634Z,7.95
2022-08-09T08:39:00.168Z,7.55
2022-08-09T08:41:42.200Z,8.35
2022-08-09T08:44:23.055Z,9.07
2022-08-09T08:47:02.516Z,7.53
2022-08-09T08:49:47.005Z,9.63
2022-08-09T08:52:59.657Z,8.15
2022-08-09T08:55:10.136Z,7.82
2022-08-09T08:57:40.337Z,7.78
2022-08-09T09:00:20.440Z,6.85
2022-08-09T09:03:02.819Z,6.60
2022-08-09T09:06:00.833Z,7.15
2022-08-09T09:08:29.779Z,6.93
2022-08-09T09:11:04.079Z,7.35
2022-08-09T09:13:55.341Z,8.02
2022-08-09T09:16:30.801Z,7.35
2022-08-09T09:22:11.709Z,8.27
2022-08-09T09:24:49.721Z,9.02
2022-08-09T09:28:06.775Z,8.48
2022-08-09T09:30:40.793Z,9.40
2022-08-09T09:33:15.864Z,8.75
2022-08-09T09:36:02.678Z,8.95
2022-08-09T09:38:59.581Z,9.52
2022-08-09T09:41:49.089Z,8.98
2022-08-09T09:44:34.988Z,9.25
2022-08-09T09:47:16.570Z,9.00
2022-08-09T09:50:14.496Z,9.73
2022-08-09T09:52:56.510Z,9.77
2022-08-09T09:55:31.345Z,10.45
2022-08-09T09:58:18.586Z,7.78
2022-08-09T10:00:59.680Z,8.10
2022-08-09T10:03:56.430Z,11.55
2022-08-09T10:06:32.296Z,8.52
2022-08-09T10:09:21.623Z,7.90
2022-08-09T10:12:12.906Z,7.47
2022-08-09T10:16:09.209Z,8.00
2022-08-09T10:18:21.244Z,9.82
2022-08-09T10:20:48.890Z,8.10
2022-08-09T10:23:24.929Z,8.05
2022-08-09T10:26:06.650Z,7.25
2022-08-09T10:28:38.462Z,7.38
2022-08-09T10:34:08.657Z,8.85
2022-08-09T10:37:31.211Z,8.40
2022-08-09T10:39:50.060Z,9.02
2022-08-09T10:42:18.701Z,8.02
2022-08-09T10:44:56.673Z,9.02
2022-08-09T10:48:17.102Z,8.35
2022-08-09T10:54:26.896Z,9.35
2022-08-09T10:57:38.014Z,8.02
2022-08-09T11:03:18.328Z,7.87
2022-08-09T11:04:33.000Z,8.85
2022-08-09T11:07:04.350Z,8.55
2022-08-09T11:09:52.837Z,7.82
2022-08-09T11:12:37.184Z,7.93
2022-08-09T11:15:09.133Z,11.60
2022-08-09T11:17:41.800Z,8.18
2022-08-09T11:20:22.250Z,8.57
2022-08-09T11:22:57.121Z,8.55
2022-08-09T11:25:44.872Z,7.72
2022-08-09T11:28:53.310Z,8.00
2022-08-09T11:31:49.536Z,8.40
2022-08-09T11:34:28.433Z,7.95
2022-08-09T11:36:59.832Z,8.85
2022-08-09T11:39:37.801Z,8.77
2022-08-09T11:42:14.786Z,8.90
2022-08-09T11:44:48.512Z,8.10
2022-08-09T11:47:19.726Z,7.70
2022-08-09T11:50:54.359Z,8.90
2022-08-09T11:53:15.487Z,8.57
2022-08-09T11:55:53.163Z,7.80
2022-08-09T11:58:32.292Z,8.43
2022-08-09T12:01:15.569Z,8.93
2022-08-09T12:04:02.008Z,8.95
2022-08-09T12:06:32.787Z,8.75
2022-08-09T12:09:19.465Z,8.05
2022-08-09T12:12:12.048Z,8.00
2022-08-09T12:15:07.393Z,8.68
2022-08-09T12:17:42.088Z,8.65
2022-08-09T12:20:25.985Z,8.13
2022-08-09T12:23:03.533Z,8.95
2022-08-09T12:25:37.548Z,8.23
2022-08-09T12:29:12.576Z,7.68
2022-08-09T12:31:10.772Z,7.80
2022-08-09T12:34:00.723Z,7.95
2022-08-09T12:37:21.852Z,7.60
2022-08-09T12:40:28.725Z,8.00
2022-08-09T12:42:57.975Z,8.77
2022-08-09T12:45:34.759Z,8.32
2022-08-09T12:48:20.025Z,8.57
2022-08-09T12:50:57.748Z,8.95
2022-08-09T12:53:37.057Z,8.48
2022-08-09T12:56:13.682Z,8.10
2022-08-09T12:59:14.328Z,8.00
2022-08-09T13:02:02.284Z,7.93
2022-08-09T13:04:38.121Z,8.65
2022-08-09T13:07:13.725Z,8.90
2022-08-09T13:09:52.666Z,8.70
2022-08-09T13:12:23.626Z,9.60
2022-08-09T13:15:02.620Z,9.35
2022-08-09T13:18:03.745Z,9.85
2022-08-09T13:22:34.086Z,9.50
2022-08-09T13:24:52.933Z,9.30
2022-08-09T13:27:48.808Z,9.90
2022-08-09T13:30:50.557Z,10.48
2022-08-09T13:37:51.995Z,7.43
2022-08-09T13:41:49.609Z,7.72
2022-08-09T13:43:35.796Z,8.73
2022-08-09T13:49:58.000Z,5.63
2022-08-09T13:52:34.862Z,4.63
2022-08-09T13:55:05.643Z,4.40
2022-08-09T14:00:17.824Z,4.43
2022-08-09T14:04:02.713Z,4.38
2022-08-09T14:06:19.327Z,4.53
2022-08-09T14:08:53.571Z,3.33
2022-08-09T14:11:26.749Z,3.47
2022-08-09T14:14:24.719Z,3.40
2022-08-09T14:16:58.616Z,3.78
2022-08-09T14:19:33.327Z,3.92
2022-08-09T14:22:01.661Z,4.25
2022-08-09T14:24:39.696Z,3.88
2022-08-09T14:27:27.641Z,4.60
2022-08-09T14:30:34.382Z,4.55
2022-08-09T14:32:52.753Z,5.13
2022-08-09T14:35:52.169Z,4.50
2022-08-09T14:41:51.747Z,4.25
2022-08-09T14:44:32.419Z,4.80
2022-08-09T14:47:41.340Z,4.47
2022-08-09T14:50:02.632Z,3.80
2022-08-09T15:16:46.481Z,6.85
2022-08-09T15:24:28.297Z,11.50
2022-08-09T15:31:01.195Z,13.00
2022-08-09T15:33:23.495Z,11.65
2022-08-09T15:41:50.701Z,13.48
2022-08-09T15:44:19.668Z,13.25
2022-08-09T15:46:52.618Z,12.98
2022-08-09T15:49:23.758Z,12.95
2022-08-09T15:52:02.857Z,14.13
2022-08-09T15:54:44.800Z,12.77
2022-08-09T15:57:36.013Z,13.07
2022-08-09T16:00:24.242Z,13.38
2022-08-09T16:02:58.281Z,10.70
2022-08-09T16:05:47.108Z,11.73
2022-08-09T16:08:30.863Z,12.13
2022-08-09T16:12:22.745Z,12.57
2022-08-09T16:14:54.430Z,14.27
2022-08-09T16:17:22.192Z,7.70
2022-08-09T16:20:04.534Z,15.18
2022-08-09T16:22:42.409Z,13.75
2022-08-09T16:25:16.691Z,14.40
2022-08-09T16:28:04.432Z,13.90
2022-08-09T16:30:32.346Z,13.18
2022-08-09T16:38:17.975Z,13.93
2022-08-09T16:40:50.180Z,12.93
2022-08-09T16:45:46.902Z,13.40
2022-08-09T16:48:40.589Z,14.60
2022-08-09T16:51:08.266Z,13.93
2022-08-09T16:53:37.174Z,13.75
2022-08-09T16:56:09.897Z,13.07
2022-08-09T16:58:39.827Z,14.20
2022-08-09T17:03:41.665Z,14.85
2022-08-09T17:06:29.071Z,15.65
2022-08-09T17:09:17.576Z,14.95
2022-08-09T17:11:52.825Z,15.77
2022-08-09T17:14:26.996Z,17.30
2022-08-09T17:17:02.306Z,16.75
2022-08-09T17:19:46.331Z,17.73
2022-08-09T17:22:35.861Z,17.15
2022-08-09T17:25:10.258Z,18.42
2022-08-09T17:27:49.453Z,17.02
2022-08-09T17:30:26.303Z,16.52
2022-08-09T17:32:57.659Z,15.48
2022-08-09T17:35:34.557Z,16.25
2022-08-09T17:38:24.518Z,16.70
2022-08-09T17:40:50.486Z,16.48
2022-08-09T17:43:37.410Z,16.40
2022-08-09T17:46:14.208Z,18.00
2022-08-09T17:48:51.721Z,17.60
2022-08-09T17:51:21.901Z,17.50
2022-08-09T17:53:54.797Z,18.27
2022-08-09T17:56:36.016Z,18.80
2022-08-09T17:59:11.401Z,16.75
2022-08-09T18:02:06.506Z,19.95
2022-08-09T18:04:30.180Z,18.02
2022-08-09T18:06:59.422Z,17.15
2022-08-09T18:09:39.988Z,17.35
2022-08-09T18:12:16.980Z,15.77
2022-08-09T18:14:53.550Z,15.63
2022-08-09T18:17:27.061Z,16.60
2022-08-09T18:20:55.190Z,13.05
2022-08-09T18:23:04.857Z,15.48
2022-08-09T18:25:52.744Z,14.38
2022-08-09T18:30:38.191Z,14.93
2022-08-09T18:31:25.111Z,11.00
2022-08-09T18:34:07.210Z,13.27
2022-08-09T18:36:36.287Z,12.85
2022-08-09T18:39:16.734Z,11.32
2022-08-09T18:41:53.040Z,11.15
2022-08-09T18:44:28.705Z,10.68
2022-08-09T18:47:04.987Z,11.32
2022-08-09T18:49:47.010Z,10.52
2022-08-09T18:52:18.759Z,10.35
2022-08-09T18:54:53.239Z,10.82
2022-08-09T18:57:22.764Z,10.48
2022-08-09T18:59:57.655Z,10.25
2022-08-09T19:02:30.510Z,10.80
2022-08-09T19:05:19.747Z,10.40
2022-08-09T19:08:04.368Z,11.30
2022-08-09T19:10:39.525Z,11.17
2022-08-09T19:13:20.448Z,11.15
2022-08-09T19:15:56.865Z,11.88
2022-08-09T19:18:33.249Z,12.68
2022-08-09T19:21:05.548Z,12.85
2022-08-09T19:26:31.371Z,12.40
2022-08-09T19:29:09.368Z,13.15
2022-08-09T19:31:46.355Z,12.77
2022-08-09T19:34:22.160Z,13.02
2022-08-09T19:36:55.337Z,12.68
2022-08-09T19:40:02.903Z,12.25
2022-08-09T19:42:19.457Z,12.70
2022-08-09T19:44:50.496Z,13.02
2022-08-09T19:47:22.918Z,12.20
2022-08-09T19:50:47.267Z,12.57
2022-08-09T19:52:51.695Z,18.70
2022-08-09T19:56:02.954Z,13.80
2022-08-09T19:58:29.811Z,12.40
2022-08-09T20:00:58.481Z,13.20
2022-08-09T20:04:12.330Z,13.05
2022-08-09T20:06:22.272Z,12.73
2022-08-09T20:08:56.719Z,12.18
2022-08-09T20:11:27.132Z,12.52
2022-08-09T20:14:15.370Z,16.13
2022-08-09T20:16:50.247Z,12.10
2022-08-09T20:19:47.491Z,10.27
2022-08-09T20:22:14.579Z,11.45
2022-08-09T20:24:43.191Z,11.90
2022-08-09T20:27:21.711Z,11.52
2022-08-09T20:29:49.561Z,11.85
2022-08-09T20:32:42.075Z,11.45
2022-08-09T20:35:06.200Z,12.02
2022-08-09T20:38:18.713Z,11.48
2022-08-09T20:40:27.599Z,12.27
2022-08-09T20:43:24.815Z,12.98
2022-08-09T20:46:00.803Z,9.90
2022-08-09T20:48:40.356Z,11.07
2022-08-09T20:51:19.208Z,11.25
2022-08-09T20:53:48.927Z,11.02
2022-08-09T20:56:21.045Z,9.48
2022-08-09T21:01:34.072Z,9.60
2022-08-09T21:05:49.449Z,10.70
2022-08-09T21:06:52.533Z,8.77
2022-08-09T21:09:32.595Z,10.15
2022-08-09T21:14:38.201Z,7.97
2022-08-09T21:18:20.825Z,9.68
2022-08-09T21:20:18.782Z,9.30
2022-08-09T21:22:54.219Z,9.05
2022-08-09T21:25:55.329Z,10.18
2022-08-09T21:28:35.254Z,9.27
2022-08-09T21:31:17.499Z,8.68
2022-08-09T21:33:52.412Z,9.55
2022-08-09T21:36:27.910Z,8.10
2022-08-09T21:38:58.858Z,9.18
2022-08-09T21:41:59.735Z,8.82
2022-08-09T21:44:33.426Z,9.20
2022-08-09T21:47:09.011Z,9.35
2022-08-09T21:49:40.608Z,8.52
2022-08-09T21:52:17.587Z,9.38
2022-08-09T21:54:59.271Z,9.02
2022-08-09T21:57:38.972Z,8.32
2022-08-09T22:00:25.910Z,8.90
2022-08-09T22:02:58.803Z,8.75
2022-08-09T22:05:35.774Z,7.95
2022-08-09T22:08:13.210Z,8.15
2022-08-09T22:11:00.877Z,7.57
2022-08-09T22:13:35.650Z,7.23
2022-08-09T22:16:08.832Z,7.80
2022-08-09T22:18:52.221Z,8.20
2022-08-09T22:21:25.327Z,7.68
2022-08-09T22:23:59.473Z,7.05
2022-08-09T22:26:35.049Z,7.18
2022-08-09T22:29:09.993Z,7.70
2022-08-09T22:31:53.193Z,7.10
2022-08-09T22:34:26.434Z,7.10
2022-08-09T22:36:55.608Z,8.00
2022-08-09T22:39:57.709Z,7.50
2022-08-09T22:42:20.752Z,7.30
2022-08-09T22:44:49.755Z,7.43
2022-08-09T22:48:14.136Z,7.25
2022-08-09T22:50:15.067Z,7.65
2022-08-09T22:52:43.651Z,8.02
2022-08-09T22:55:21.872Z,7.82
2022-08-09T22:57:59.862Z,7.15
2022-08-09T23:00:29.244Z,7.10
2022-08-09T23:02:57.040Z,7.55
2022-08-09T23:05:26.302Z,7.40
2022-08-09T23:08:27.770Z,6.78
2022-08-09T23:10:57.555Z,7.18
2022-08-09T23:13:24.841Z,6.97
2022-08-09T23:16:02.856Z,6.78
2022-08-09T23:18:31.425Z,6.85
2022-08-09T23:20:58.698Z,6.65
2022-08-09T23:23:26.181Z,6.63
2022-08-09T23:25:53.575Z,6.25
2022-08-09T23:28:20.780Z,6.60
2022-08-09T23:30:52.032Z,6.10
2022-08-09T23:33:21.390Z,7.00
2022-08-09T23:36:06.263Z,6.18
2022-08-09T23:38:48.457Z,6.13
2022-08-09T23:41:28.059Z,5.90
2022-08-09T23:44:01.754Z,5.40
2022-08-09T23:46:30.588Z,5.25
2022-08-09T23:48:59.240Z,6.03
2022-08-09T23:51:27.553Z,5.20
2022-08-09T23:54:03.089Z,4.88
2022-08-09T23:56:52.665Z,5.18
2022-08-09T23:59:21.212Z,4.75
